Time;durP1;ratioP1;P1;durP2;ratioP2;P2;SDS_P1;SDS_P2;PMS_P1;PMS_P2;Temp;Humidity;BMP_temperature;BMP_pressure;BME280_temperature;BME280_humidity;BME280_pressure;Samples;Min_cycle;Max_cycle;Signal;HPM_P1;HPM_P2
2022/08/31 12:15:31;;;;;;;10.10;5.50;;;21.10;97.50;;;;;;5395073;23;19919;-73
2022/08/31 12:18:37;;;;;;;11.10;5.63;;;21.20;97.10;;;;;;4859504;29;20069;-73
2022/08/31 12:25:33;;;;;;;9.20;4.80;;;21.40;97.20;;;;;;4835600;29;20319;-74
2022/08/31 12:28:53;;;;;;;9.32;5.80;;;21.60;97.40;;;;;;4835680;29;20048;-74
2022/08/31 12:31:38;;;;;;;10.00;5.88;;;21.70;97.40;;;;;;4852559;29;20060;-72
2022/08/31 12:34:18;;;;;;;7.75;5.60;;;21.80;97.20;;;;;;4901491;29;20033;-73
2022/08/31 12:37:37;;;;;;;;;;;;;;;;;;;;;
2022/08/31 12:40:12;;;;;;;8.18;5.38;;;22.30;96.40;;;;;;4884658;29;20055;-74
2022/08/31 12:42:49;;;;;;;9.45;5.18;;;22.70;95.30;;;;;;4876308;29;20056;-74
2022/08/31 12:53:46;;;;;;;7.40;4.93;;;23.80;93.00;;;;;;4814512;29;20021;-74
2022/08/31 13:04:45;;;;;;;10.18;5.35;;;24.00;91.50;;;;;;4813986;29;20150;-75
2022/08/31 13:10:39;;;;;;;9.52;4.80;;;25.10;90.30;;;;;;4799117;29;20241;-74
2022/08/31 13:16:56;;;;;;;10.07;5.93;;;27.20;84.20;;;;;;4849420;29;20056;-74
2022/08/31 13:19:31;;;;;;;8.07;4.50;;;29.40;78.30;;;;;;4849647;29;20046;-74
2022/08/31 13:22:08;;;;;;;7.25;4.70;;;30.80;74.90;;;;;;4850037;29;20201;-74
2022/08/31 15:22:55;;;;;;;10.35;3.78;;;28.70;67.70;;;;;;5869421;23;20028;31
2022/08/31 15:25:31;;;;;;;6.82;3.20;;;26.80;71.40;;;;;;4796741;30;20051;-73
2022/08/31 15:27:57;;;;;;;5.22;2.92;;;25.80;73.70;;;;;;4784100;30;20062;-75
2022/08/31 15:30:43;;;;;;;10.45;7.28;;;25.20;74.10;;;;;;4799062;30;20023;-75
2022/08/31 15:33:09;;;;;;;4.40;3.50;;;24.50;77.80;;;;;;4783810;30;20256;-73
2022/08/31 15:35:40;;;;;;;5.70;3.03;;;23.80;78.50;;;;;;4799099;30;20080;-74
2022/08/31 15:38:12;;;;;;;6.68;3.05;;;23.50;79.60;;;;;;4783661;30;20213;-74
2022/08/31 15:40:38;;;;;;;5.53;3.13;;;23.30;81.30;;;;;;4797887;30;20186;-74
2022/08/31 15:43:08;;;;;;;5.47;3.13;;;23.20;82.10;;;;;;4783325;30;20072;-74
2022/08/31 15:45:34;;;;;;;5.22;3.30;;;23.30;82.00;;;;;;4798685;30;20063;-73
2022/08/31 16:21:04;;;;;;;7.32;3.88;;;25.10;76.90;;;;;;4761748;30;20205;-74
2022/08/31 16:23:31;;;;;;;5.55;3.50;;;24.70;78.60;;;;;;4755868;30;20043;-73
2022/08/31 16:25:59;;;;;;;5.47;3.63;;;24.90;78.10;;;;;;4765045;30;20051;-73
2022/08/31 16:28:25;;;;;;;8.80;4.05;;;25.00;79.10;;;;;;4764934;30;20035;-74
2022/08/31 17:33:11;;;;;;;5.47;3.20;;;22.70;81.40;;;;;;4880965;29;20033;-72
2022/08/31 17:35:40;;;;;;;6.97;3.75;;;22.60;82.30;;;;;;4874932;29;20056;-73
2022/08/31 17:38:06;;;;;;;4.95;3.45;;;22.40;83.20;;;;;;4857454;29;20047;-73
2022/08/31 17:40:32;;;;;;;5.57;3.63;;;22.40;83.90;;;;;;4888695;29;20060;-73
2022/08/31 17:46:48;;;;;;;5.78;3.65;;;22.30;84.30;;;;;;4889260;29;20020;-73
2022/08/31 17:49:15;;;;;;;5.28;3.70;;;22.20;85.70;;;;;;4872468;29;20300;-74
2022/08/31 17:52:07;;;;;;;5.47;3.63;;;21.90;86.10;;;;;;4888549;29;20032;-75
2022/08/31 17:54:35;;;;;;;5.43;3.42;;;21.80;87.10;;;;;;4871950;29;20033;-75
2022/08/31 17:57:04;;;;;;;6.53;3.83;;;21.70;88.00;;;;;;4889185;29;20196;-75
2022/08/31 17:59:36;;;;;;;6.85;3.70;;;21.50;88.70;;;;;;4872033;29;20061;-74
2022/08/31 18:02:09;;;;;;;5.80;4.00;;;21.50;89.50;;;;;;4888742;29;20068;-75
2022/08/31 18:04:37;;;;;;;6.30;4.03;;;21.30;90.10;;;;;;4871877;29;20047;-76
2022/08/31 18:07:09;;;;;;;7.70;5.32;;;21.30;91.40;;;;;;4857088;29;20100;-74
2022/08/31 18:09:39;;;;;;;8.40;5.47;;;21.10;92.70;;;;;;4871586;29;20088;-73
2022/08/31 18:12:06;;;;;;;7.05;5.10;;;20.80;93.90;;;;;;4856815;29;20097;-75
2022/08/31 18:18:44;;;;;;;9.70;6.80;;;20.50;95.20;;;;;;4810701;29;20042;-75
2022/08/31 18:21:11;;;;;;;8.05;5.90;;;20.20;97.60;;;;;;4805129;29;20124;-75
2022/08/31 18:23:38;;;;;;;10.73;6.65;;;20.10;98.80;;;;;;4837847;29;20302;-74
2022/08/31 18:26:20;;;;;;;14.63;11.20;;;19.90;99.90;;;;;;4838665;29;20082;-75
2022/08/31 18:28:47;;;;;;;11.82;9.48;;;19.80;99.90;;;;;;4869314;29;20308;-74
2022/08/31 18:31:16;;;;;;;9.85;6.93;;;19.70;99.90;;;;;;4869740;29;20097;-74
2022/08/31 18:33:43;;;;;;;10.23;7.45;;;19.60;99.90;;;;;;4869442;29;20222;-74
2022/08/31 18:36:10;;;;;;;9.05;6.38;;;19.50;99.90;;;;;;4853537;29;20045;-74
2022/08/31 18:38:37;;;;;;;8.30;6.13;;;19.40;99.90;;;;;;4852780;29;20042;-74
2022/08/31 18:46:34;;;;;;;10.50;6.75;;;19.30;99.90;;;;;;4888027;29;20033;-75
2022/08/31 18:49:01;;;;;;;11.00;7.78;;;19.20;99.90;;;;;;4872264;29;20085;-74
2022/08/31 18:51:28;;;;;;;12.33;8.67;;;19.10;99.90;;;;;;4887587;29;20334;-77
2022/08/31 18:53:54;;;;;;;12.45;7.57;;;19.00;99.90;;;;;;4888158;29;20040;-75
2022/08/31 18:56:20;;;;;;;12.05;8.05;;;18.90;99.90;;;;;;4888494;29;20036;-76
2022/08/31 18:58:46;;;;;;;13.68;8.10;;;19.00;99.90;;;;;;4887804;29;20365;-75
2022/08/31 19:01:14;;;;;;;10.25;7.82;;;19.00;99.90;;;;;;4888276;29;20192;-75
2022/08/31 19:03:40;;;;;;;11.93;8.80;;;18.90;99.90;;;;;;4871158;29;20056;-75
2022/08/31 19:06:07;;;;;;;19.00;14.02;;;18.90;99.90;;;;;;4871923;29;20033;-75
2022/08/31 19:08:32;;;;;;;24.60;19.60;;;18.80;99.90;;;;;;4871014;29;20210;-75
2022/08/31 19:10:59;;;;;;;16.13;11.45;;;18.80;99.90;;;;;;4856365;29;20112;-75
2022/08/31 19:33:39;;;;;;;15.73;10.52;;;18.20;99.90;;;;;;4888055;29;20092;-75
2022/08/31 19:36:05;;;;;;;14.38;10.45;;;18.10;99.90;;;;;;4859643;29;20021;-75
2022/08/31 19:38:31;;;;;;;18.15;11.43;;;18.10;99.90;;;;;;4874258;29;20100;-76
2022/08/31 19:40:58;;;;;;;16.92;10.65;;;18.00;99.90;;;;;;4859554;29;20025;-76
2022/08/31 19:43:24;;;;;;;19.20;10.90;;;18.00;99.90;;;;;;4874971;29;20028;-74
2022/08/31 19:49:54;;;;;;;16.23;10.73;;;17.90;99.90;;;;;;4815572;29;20038;-73
2022/08/31 19:52:23;;;;;;;43.10;33.55;;;17.90;99.90;;;;;;4800946;29;20101;-76
2022/08/31 19:54:50;;;;;;;26.15;20.88;;;17.80;99.90;;;;;;4815171;29;20138;-76
2022/08/31 19:57:20;;;;;;;21.33;13.85;;;17.70;99.90;;;;;;4785645;29;20108;-74
2022/08/31 19:59:45;;;;;;;18.85;12.65;;;17.70;99.90;;;;;;4815044;29;20296;-73
2022/08/31 20:02:12;;;;;;;21.05;13.85;;;17.70;99.90;;;;;;4815320;29;20042;-76
2022/08/31 20:04:40;;;;;;;19.80;12.63;;;17.70;99.90;;;;;;4814317;29;20122;-74
2022/08/31 20:07:06;;;;;;;19.77;13.32;;;17.60;99.90;;;;;;4815272;29;20037;-74
2022/08/31 20:09:46;;;;;;;19.15;12.70;;;17.60;99.90;;;;;;4799442;29;20027;-74
2022/08/31 20:12:12;;;;;;;17.65;12.20;;;17.60;99.90;;;;;;4815195;29;20071;-74
2022/08/31 20:14:38;;;;;;;17.85;12.88;;;17.50;99.90;;;;;;4814401;29;20272;-75
2022/08/31 20:24:41;;;;;;;18.70;12.45;;;17.40;99.90;;;;;;4793877;30;20049;-74
2022/08/31 20:27:09;;;;;;;18.08;12.57;;;17.30;99.90;;;;;;4826781;29;20049;-74
2022/08/31 20:29:37;;;;;;;18.67;13.60;;;17.30;99.90;;;;;;4850727;29;20033;-75
2022/08/31 20:32:03;;;;;;;17.63;11.98;;;17.30;99.90;;;;;;4851141;29;20344;-74
2022/08/31 20:34:29;;;;;;;16.75;11.35;;;17.20;99.90;;;;;;4850996;29;20037;-74
2022/08/31 20:36:57;;;;;;;19.88;12.77;;;17.20;99.90;;;;;;4835012;29;20055;-74
2022/08/31 20:39:26;;;;;;;20.48;13.82;;;17.20;99.90;;;;;;4835763;29;20102;-74
2022/08/31 20:41:54;;;;;;;15.85;11.90;;;17.20;99.90;;;;;;4850427;29;20082;-74
2022/08/31 20:44:23;;;;;;;16.83;11.60;;;17.20;99.90;;;;;;4850484;29;20056;-74
2022/08/31 20:49:43;;;;;;;15.38;12.45;;;17.20;99.90;;;;;;4850443;29;20001;-75
2022/08/31 20:52:29;;;;;;;17.17;14.40;;;17.10;99.90;;;;;;4821663;29;20320;-75
2022/08/31 20:54:59;;;;;;;20.30;14.50;;;17.10;99.90;;;;;;4850544;29;20119;-75
2022/08/31 20:57:30;;;;;;;18.55;14.05;;;17.00;99.90;;;;;;4880565;29;20365;-75
2022/08/31 21:00:02;;;;;;;22.15;15.27;;;17.00;99.90;;;;;;4891263;29;20165;-75
2022/08/31 21:02:30;;;;;;;19.55;15.35;;;16.90;99.90;;;;;;4876220;29;20040;-75
2022/08/31 21:05:03;;;;;;;19.75;16.10;;;16.80;99.90;;;;;;4875575;29;20318;-75
2022/08/31 21:07:30;;;;;;;20.02;14.93;;;16.80;99.90;;;;;;4891478;29;20049;-74
2022/08/31 21:09:59;;;;;;;39.97;31.77;;;16.80;99.90;;;;;;4891181;29;20029;-74
2022/08/31 21:12:26;;;;;;;27.65;22.95;;;16.80;99.90;;;;;;4891524;29;20036;-75
2022/08/31 21:14:54;;;;;;;35.67;29.37;;;16.80;99.90;;;;;;4890871;29;20310;-74
2022/08/31 21:17:26;;;;;;;26.88;21.05;;;16.80;99.90;;;;;;4891458;29;20104;-74
2022/08/31 21:20:00;;;;;;;22.33;19.30;;;16.80;99.90;;;;;;4890838;29;20330;-75
2022/08/31 21:22:26;;;;;;;27.27;19.77;;;16.80;99.90;;;;;;4891369;29;20217;-74
2022/08/31 21:29:29;;;;;;;21.55;17.23;;;16.80;99.90;;;;;;4907625;29;20282;-74
2022/08/31 21:31:55;;;;;;;25.58;20.55;;;16.80;99.90;;;;;;4906875;29;20039;-74
2022/08/31 21:34:21;;;;;;;22.83;17.50;;;16.70;99.90;;;;;;4907561;29;20059;-74
2022/08/31 21:36:47;;;;;;;22.65;16.75;;;16.70;99.90;;;;;;4890185;29;20044;-74
2022/08/31 21:39:16;;;;;;;22.02;16.05;;;16.70;99.90;;;;;;4890860;29;20041;-75
2022/08/31 21:41:43;;;;;;;19.25;15.00;;;16.70;99.90;;;;;;4907154;29;20020;-73
